Temp: 8.9°C   Baro: 1032.4mb
  Wind: 4.9mph   Dir: E (100°)
  Rain: 0.0mm (0.0mm/hr)
  Solar: 800W/m2  Hum: 67%
 
Bath Spa Weather Historical Data
Daily Summary for September 12, 2019 Units:  Metric    English   Both
Next Day »
Daily Weekly Monthly Yearly Custom
  High: Low: Average:
Temperature: 22.0 °C 13.2 °C 17.4 °C
Dew Point: 16.3 °C 10.0 °C 14.6 °C
Humidity: 95% 68% 84%
Wind Speed: 30.6km/h 0.0km/h 7.3km/h
Wind Gust: 32.2km/h - -
Wind direction- - West
Pressure: 1032.1 hPa 1024.9 hPa -
Precipitation: 0.5 mm    
Historical Graphs
 
 
Tabular Data for September 12, 2019
Time Temperature Dew Point Pressure Wind direction Wind Speed Wind Gust Humidity Rainfall Rate (Hourly) solar
00:00 13.8 °C 12.5 °C 1024.9 hPa WNW 4.7 km/h 4.8 km/h 92% 0.0 mm 0.00 W/m2
00:05 13.8 °C 12.5 °C 1024.9 hPa Calm     92% 0.0 mm 0.00 W/m2
00:10 13.9 °C 12.6 °C 1024.9 hPa Calm   4.8 km/h 92% 0.0 mm 0.00 W/m2
00:15 13.9 °C 12.6 °C 1024.9 hPa Calm   3.2 km/h 92% 0.0 mm 0.00 W/m2
00:20 14.0 °C 12.7 °C 1024.9 hPa Calm   1.6 km/h 92% 0.0 mm 0.00 W/m2
00:25 14.1 °C 12.8 °C 1024.9 hPa WNW 3.2 km/h 4.8 km/h 92% 0.0 mm 0.00 W/m2
00:30 14.2 °C 12.9 °C 1024.9 hPa WNW 3.2 km/h 8.0 km/h 92% 0.0 mm 0.00 W/m2
00:35 14.3 °C 13.0 °C 1024.9 hPa WNW 3.2 km/h 4.8 km/h 92% 0.0 mm 0.00 W/m2
00:40 14.4 °C 13.1 °C 1024.9 hPa Calm   4.8 km/h 92% 0.0 mm 0.00 W/m2
00:45 14.4 °C 13.1 °C 1024.9 hPa Calm   3.2 km/h 92% 0.0 mm 0.00 W/m2
00:50 14.4 °C 13.1 °C 1024.9 hPa Calm   3.2 km/h 92% 0.0 mm 0.00 W/m2
00:55 14.4 °C 12.9 °C 1024.9 hPa West 6.4 km/h 6.4 km/h 91% 0.0 mm 0.00 W/m2
01:00 14.4 °C 12.9 °C 1025.3 hPa West 8.0 km/h 8.0 km/h 91% 0.0 mm 0.00 W/m2
01:05 14.4 °C 12.9 °C 1025.3 hPa West 6.4 km/h 8.0 km/h 91% 0.0 mm 0.00 W/m2
01:10 14.5 °C 13.0 °C 1025.3 hPa Calm   8.0 km/h 91% 0.0 mm 0.00 W/m2
01:15 14.5 °C 13.0 °C 1025.3 hPa WSW 6.4 km/h 11.3 km/h 91% 0.0 mm 0.00 W/m2
01:20 14.5 °C 12.9 °C 1025.3 hPa WSW 3.2 km/h 6.4 km/h 90% 0.0 mm 0.00 W/m2
01:25 14.5 °C 12.9 °C 1025.3 hPa WSW 7.9 km/h 8.0 km/h 90% 0.0 mm 0.00 W/m2
01:30 14.6 °C 13.0 °C 1025.6 hPa Calm   4.8 km/h 90% 0.0 mm 0.00 W/m2
01:35 14.6 °C 13.0 °C 1025.6 hPa WSW 1.4 km/h 4.8 km/h 90% 0.0 mm 0.00 W/m2
01:40 14.6 °C 13.0 °C 1025.6 hPa WSW 1.4 km/h 8.0 km/h 90% 0.0 mm 0.00 W/m2
01:45 14.7 °C 13.1 °C 1025.6 hPa Calm   8.0 km/h 90% 0.0 mm 0.00 W/m2
01:50 14.6 °C 13.1 °C 1025.6 hPa West 1.4 km/h 8.0 km/h 91% 0.0 mm 5.00 W/m2
01:55 14.6 °C 13.1 °C 1025.6 hPa Calm   3.2 km/h 91% 0.0 mm 7.00 W/m2
02:00 14.6 °C 13.1 °C 1025.6 hPa WNW 3.2 km/h 6.4 km/h 91% 0.0 mm 14.00 W/m2
02:05 14.6 °C 13.1 °C 1025.6 hPa WNW 1.4 km/h 3.2 km/h 91% 0.0 mm 12.00 W/m2
02:10 14.6 °C 13.1 °C 1025.6 hPa WNW 1.4 km/h 3.2 km/h 91% 0.0 mm 12.00 W/m2
02:15 14.7 °C 13.2 °C 1025.6 hPa WNW 1.4 km/h 3.2 km/h 91% 0.0 mm 16.00 W/m2
02:20 14.7 °C 13.2 °C 1025.6 hPa Calm   1.6 km/h 91% 0.0 mm 19.00 W/m2
02:25 14.7 °C 13.2 °C 1025.6 hPa Calm     91% 0.0 mm 33.00 W/m2
02:30 14.8 °C 13.5 °C 1025.6 hPa Calm     92% 0.0 mm 30.00 W/m2
02:35 14.9 °C 13.6 °C 1026.0 hPa Calm   1.6 km/h 92% 0.0 mm 44.00 W/m2
02:40 14.9 °C 13.6 °C 1026.0 hPa Calm   1.6 km/h 92% 0.0 mm 32.00 W/m2
02:45 15.0 °C 13.7 °C 1026.0 hPa Calm   1.6 km/h 92% 0.0 mm 33.00 W/m2
02:50 15.1 °C 13.8 °C 1026.0 hPa Calm     92% 0.0 mm 37.00 W/m2
02:55 15.3 °C 14.0 °C 1026.0 hPa SW 3.2 km/h 9.7 km/h 92% 0.0 mm 46.00 W/m2
03:00 15.4 °C 14.1 °C 1026.0 hPa West 6.4 km/h 11.3 km/h 92% 0.0 mm 60.00 W/m2
03:05 15.5 °C 14.2 °C 1026.0 hPa SW 4.7 km/h 11.3 km/h 92% 0.0 mm 53.00 W/m2
03:10 15.5 °C 14.2 °C 1026.0 hPa WSW 1.4 km/h 9.7 km/h 92% 0.0 mm 95.00 W/m2
03:15 15.7 °C 14.6 °C 1026.0 hPa SW 4.7 km/h 9.7 km/h 93% 0.0 mm 76.00 W/m2
03:20 15.8 °C 14.7 °C 1026.0 hPa WSW 4.7 km/h 9.7 km/h 93% 0.0 mm 104.00 W/m2
03:25 15.8 °C 14.7 °C 1026.0 hPa WSW 6.4 km/h 14.5 km/h 93% 0.0 mm 120.00 W/m2
03:30 16.0 °C 14.9 °C 1026.0 hPa SW 6.4 km/h 8.0 km/h 93% 0.0 mm 127.00 W/m2
03:35 16.1 °C 15.0 °C 1026.0 hPa SW 6.4 km/h 14.5 km/h 93% 0.0 mm 111.00 W/m2
03:40 16.2 °C 15.1 °C 1026.3 hPa SW 7.9 km/h 14.5 km/h 93% 0.0 mm 116.00 W/m2
03:45 16.3 °C 15.2 °C 1026.3 hPa SW 6.4 km/h 14.5 km/h 93% 0.0 mm 120.00 W/m2
03:50 16.3 °C 15.2 °C 1026.3 hPa WSW 6.4 km/h 19.3 km/h 93% 0.0 mm 127.00 W/m2
03:55 16.4 °C 15.3 °C 1026.3 hPa WSW 17.7 km/h 17.7 km/h 93% 0.0 mm 132.00 W/m2
04:00 16.5 °C 15.4 °C 1026.3 hPa SW 11.1 km/h 19.3 km/h 93% 0.0 mm 153.00 W/m2
04:05 16.7 °C 15.4 °C 1026.6 hPa SW 11.1 km/h 17.7 km/h 92% 0.0 mm 213.00 W/m2
04:10 16.9 °C 15.6 °C 1026.6 hPa WSW 13.0 km/h 12.9 km/h 92% 0.0 mm 301.00 W/m2
04:15 17.0 °C 15.7 °C 1026.6 hPa WSW 11.1 km/h 16.1 km/h 92% 0.0 mm 220.00 W/m2
04:20 17.2 °C 15.7 °C 1026.6 hPa WSW 3.2 km/h 17.7 km/h 91% 0.0 mm 220.00 W/m2
04:25 17.3 °C 15.6 °C 1026.6 hPa WSW 6.4 km/h 14.5 km/h 90% 0.0 mm 158.00 W/m2
04:30 17.3 °C 15.6 °C 1026.6 hPa SW 7.9 km/h 14.5 km/h 90% 0.0 mm 200.00 W/m2
04:35 17.4 °C 15.7 °C 1026.6 hPa WSW 4.7 km/h 16.1 km/h 90% 0.0 mm 258.00 W/m2
04:40 17.5 °C 15.7 °C 1026.6 hPa SW 9.7 km/h 11.3 km/h 89% 0.0 mm 232.00 W/m2
04:45 17.8 °C 16.0 °C 1026.6 hPa West 11.1 km/h 16.1 km/h 89% 0.0 mm 352.00 W/m2
04:50 17.9 °C 15.9 °C 1027.0 hPa SW 22.7 km/h 25.7 km/h 88% 0.0 mm 244.00 W/m2
04:55 17.8 °C 15.6 °C 1027.0 hPa WSW 14.3 km/h 19.3 km/h 87% 0.0 mm 193.00 W/m2
05:00 18.0 °C 15.8 °C 1027.0 hPa West 16.3 km/h 19.3 km/h 87% 0.0 mm 239.00 W/m2
05:05 17.9 °C 15.5 °C 1027.0 hPa SW 13.0 km/h 24.1 km/h 86% 0.0 mm 278.00 W/m2
05:10 18.0 °C 15.6 °C 1027.0 hPa SW 14.3 km/h 17.7 km/h 86% 0.0 mm 216.00 W/m2
05:15 18.1 °C 15.7 °C 1027.0 hPa SSW 9.7 km/h 19.3 km/h 86% 0.0 mm 255.00 W/m2
05:20 18.0 °C 15.6 °C 1027.0 hPa SW 16.3 km/h 20.9 km/h 86% 0.0 mm 353.00 W/m2
05:25 17.8 °C 15.4 °C 1027.3 hPa WNW 11.1 km/h 19.3 km/h 86% 0.0 mm 408.00 W/m2
05:30 18.0 °C 15.6 °C 1027.3 hPa WNW 14.3 km/h 20.9 km/h 86% 0.0 mm 547.00 W/m2
05:35 18.3 °C 15.9 °C 1027.3 hPa WSW 9.7 km/h 16.1 km/h 86% 0.0 mm 306.00 W/m2
05:40 18.2 °C 15.8 °C 1027.3 hPa SW 6.4 km/h 24.1 km/h 86% 0.0 mm 243.00 W/m2
05:45 18.2 °C 15.8 °C 1027.3 hPa WSW 16.3 km/h 24.1 km/h 86% 0.0 mm 638.00 W/m2
05:50 18.4 °C 15.6 °C 1027.3 hPa SW 14.3 km/h 24.1 km/h 84% 0.0 mm 383.00 W/m2
05:55 18.8 °C 15.7 °C 1027.3 hPa West 14.3 km/h 19.3 km/h 82% 0.0 mm 429.00 W/m2
06:00 18.9 °C 15.8 °C 1027.3 hPa SW 4.7 km/h 16.1 km/h 82% 0.0 mm 279.00 W/m2
06:05 19.0 °C 15.7 °C 1027.3 hPa SW 7.9 km/h 14.5 km/h 81% 0.0 mm 237.00 W/m2
06:10 18.9 °C 15.4 °C 1027.3 hPa West 16.3 km/h 19.3 km/h 80% 0.0 mm 292.00 W/m2
06:15 19.0 °C 15.5 °C 1027.3 hPa SW 14.3 km/h 16.1 km/h 80% 0.0 mm 295.00 W/m2
06:20 19.2 °C 15.7 °C 1027.3 hPa WSW 16.3 km/h 16.1 km/h 80% 0.0 mm 401.00 W/m2
06:25 19.3 °C 15.6 °C 1027.3 hPa WSW 14.3 km/h 25.7 km/h 79% 0.0 mm 327.00 W/m2
06:30 19.3 °C 15.4 °C 1027.3 hPa WSW 22.7 km/h 22.5 km/h 78% 0.0 mm 221.00 W/m2
06:35 19.3 °C 15.4 °C 1027.3 hPa WSW 14.3 km/h 19.3 km/h 78% 0.0 mm 160.00 W/m2
06:40 19.3 °C 15.4 °C 1027.3 hPa West 7.9 km/h 12.9 km/h 78% 0.0 mm 172.00 W/m2
06:45 19.3 °C 15.4 °C 1027.3 hPa West 9.7 km/h 17.7 km/h 78% 0.0 mm 185.00 W/m2
06:50 19.4 °C 15.5 °C 1027.3 hPa WSW 11.1 km/h 19.3 km/h 78% 0.0 mm 244.00 W/m2
06:55 19.4 °C 15.5 °C 1027.3 hPa West 19.5 km/h 24.1 km/h 78% 0.0 mm 144.00 W/m2
07:00 19.4 °C 15.5 °C 1027.3 hPa West 6.4 km/h 14.5 km/h 78% 0.0 mm 114.00 W/m2
07:05 19.3 °C 15.4 °C 1027.3 hPa West 6.4 km/h 22.5 km/h 78% 0.0 mm 163.00 W/m2
07:10 19.3 °C 15.4 °C 1027.3 hPa WSW 11.1 km/h 20.9 km/h 78% 0.0 mm 153.00 W/m2
07:15 19.3 °C 15.4 °C 1027.3 hPa WSW 11.1 km/h 22.5 km/h 78% 0.0 mm 209.00 W/m2
07:20 19.3 °C 15.4 °C 1027.3 hPa WNW 16.3 km/h 20.9 km/h 78% 0.0 mm 232.00 W/m2
07:25 19.5 °C 15.6 °C 1027.3 hPa WSW 14.3 km/h 20.9 km/h 78% 0.0 mm 387.00 W/m2
07:30 20.0 °C 15.8 °C 1027.0 hPa WSW 14.3 km/h 16.1 km/h 77% 0.0 mm 387.00 W/m2
07:35 20.2 °C 15.8 °C 1027.3 hPa WSW 9.7 km/h 14.5 km/h 76% 0.0 mm 591.00 W/m2
07:40 20.5 °C 15.9 °C 1027.0 hPa WSW 4.7 km/h 19.3 km/h 75% 0.0 mm 362.00 W/m2
07:45 20.6 °C 15.6 °C 1027.0 hPa WNW 11.1 km/h 14.5 km/h 73% 0.0 mm 253.00 W/m2
07:50 20.8 °C 15.8 °C 1027.0 hPa NW 13.0 km/h 20.9 km/h 73% 0.0 mm 830.00 W/m2
07:55 20.8 °C 15.3 °C 1027.0 hPa SW 24.1 km/h 24.1 km/h 71% 0.0 mm 142.00 W/m2
08:00 20.7 °C 15.3 °C 1027.0 hPa West 13.0 km/h 24.1 km/h 71% 0.0 mm 837.00 W/m2
08:05 20.9 °C 15.7 °C 1027.0 hPa WSW 7.9 km/h 20.9 km/h 72% 0.0 mm 795.00 W/m2
08:10 21.6 °C 15.7 °C 1027.0 hPa West 17.7 km/h 17.7 km/h 69% 0.0 mm 810.00 W/m2
08:15 21.5 °C 15.8 °C 1027.0 hPa West 19.5 km/h 19.3 km/h 70% 0.0 mm 714.00 W/m2
08:20 21.2 °C 15.3 °C 1027.0 hPa West 13.0 km/h 14.5 km/h 69% 0.0 mm 649.00 W/m2
08:25 20.8 °C 15.1 °C 1027.0 hPa WNW 20.9 km/h 22.5 km/h 70% 0.0 mm 292.00 W/m2
08:30 20.7 °C 15.3 °C 1027.0 hPa West 9.7 km/h 32.2 km/h 71% 0.0 mm 243.00 W/m2
08:35 20.9 °C 15.7 °C 1027.0 hPa West 16.3 km/h 20.9 km/h 72% 0.0 mm 239.00 W/m2
08:40 20.9 °C 15.4 °C 1027.0 hPa SW 7.9 km/h 32.2 km/h 71% 0.0 mm 278.00 W/m2
08:45 20.9 °C 15.4 °C 1027.0 hPa SW 14.3 km/h 22.5 km/h 71% 0.0 mm 313.00 W/m2
08:50 20.9 °C 15.7 °C 1027.0 hPa SW 20.9 km/h 25.7 km/h 72% 0.0 mm 459.00 W/m2
08:55 20.9 °C 15.7 °C 1027.0 hPa WSW 17.7 km/h 24.1 km/h 72% 0.0 mm 352.00 W/m2
09:00 21.4 °C 15.9 °C 1026.6 hPa West 16.3 km/h 20.9 km/h 71% 0.0 mm 647.00 W/m2
09:05 21.3 °C 15.8 °C 1026.6 hPa West 6.4 km/h 25.7 km/h 71% 0.0 mm 703.00 W/m2
09:10 21.5 °C 15.8 °C 1026.6 hPa West 7.9 km/h 19.3 km/h 70% 0.0 mm 671.00 W/m2
09:15 21.5 °C 15.6 °C 1026.6 hPa WNW 7.9 km/h 24.1 km/h 69% 0.0 mm 691.00 W/m2
09:20 21.2 °C 15.5 °C 1026.6 hPa West 9.7 km/h 24.1 km/h 70% 0.0 mm 749.00 W/m2
09:25 21.5 °C 16.0 °C 1026.6 hPa WNW 19.5 km/h 25.7 km/h 71% 0.0 mm 805.00 W/m2
09:30 22.0 °C 16.3 °C 1026.6 hPa SW 13.0 km/h 19.3 km/h 70% 0.0 mm 508.00 W/m2
09:35 21.8 °C 15.9 °C 1026.6 hPa West 25.9 km/h 27.4 km/h 69% 0.0 mm 559.00 W/m2
09:40 21.8 °C 16.1 °C 1026.6 hPa WNW 17.7 km/h 19.3 km/h 70% 0.0 mm 694.00 W/m2
09:45 21.5 °C 16.0 °C 1026.6 hPa West 17.7 km/h 20.9 km/h 71% 0.0 mm 605.00 W/m2
09:50 21.5 °C 16.0 °C 1026.6 hPa WNW 20.9 km/h 22.5 km/h 71% 0.0 mm 638.00 W/m2
09:55 21.4 °C 16.1 °C 1026.6 hPa West 11.1 km/h 22.5 km/h 72% 0.0 mm 606.00 W/m2
10:00 21.8 °C 16.3 °C 1026.6 hPa NW 6.4 km/h 14.5 km/h 71% 0.0 mm 594.00 W/m2
10:05 21.3 °C 16.0 °C 1026.6 hPa West 19.5 km/h 29.0 km/h 72% 0.0 mm 606.00 W/m2
10:10 21.2 °C 15.9 °C 1026.6 hPa West 17.7 km/h 22.5 km/h 72% 0.0 mm 573.00 W/m2
10:15 21.3 °C 16.0 °C 1026.6 hPa NNW 6.4 km/h 16.1 km/h 72% 0.0 mm 571.00 W/m2
10:20 21.3 °C 15.6 °C 1026.6 hPa West 25.7 km/h 25.7 km/h 70% 0.0 mm 573.00 W/m2
10:25 21.4 °C 15.7 °C 1026.6 hPa West 14.3 km/h 20.9 km/h 70% 0.0 mm 580.00 W/m2
10:30 21.4 °C 15.5 °C 1026.6 hPa West 20.9 km/h 24.1 km/h 69% 0.0 mm 571.00 W/m2
10:35 21.2 °C 15.5 °C 1026.6 hPa West 17.7 km/h 20.9 km/h 70% 0.0 mm 570.00 W/m2
10:40 21.0 °C 14.9 °C 1026.6 hPa WNW 4.7 km/h 25.7 km/h 68% 0.0 mm 492.00 W/m2
10:45 21.0 °C 14.9 °C 1026.6 hPa West 9.7 km/h 24.1 km/h 68% 0.0 mm 271.00 W/m2
10:50 21.3 °C 15.4 °C 1026.6 hPa NNW 1.4 km/h 27.4 km/h 69% 0.0 mm 526.00 W/m2
10:55 21.6 °C 15.4 °C 1026.6 hPa WNW 6.4 km/h 14.5 km/h 68% 0.0 mm 517.00 W/m2
11:00 21.1 °C 15.0 °C 1026.6 hPa NNW 13.0 km/h 20.9 km/h 68% 0.0 mm 566.00 W/m2
11:05 21.1 °C 15.2 °C 1026.6 hPa West 7.9 km/h 22.5 km/h 69% 0.0 mm 475.00 W/m2
11:10 20.9 °C 15.0 °C 1026.6 hPa West 19.5 km/h 24.1 km/h 69% 0.0 mm 466.00 W/m2
11:15 21.0 °C 15.1 °C 1026.6 hPa WNW 11.1 km/h 22.5 km/h 69% 0.0 mm 450.00 W/m2
11:20 20.7 °C 14.8 °C 1027.0 hPa NNW 20.9 km/h 27.4 km/h 69% 0.0 mm 439.00 W/m2
11:25 20.7 °C 14.8 °C 1026.6 hPa NW 19.5 km/h 24.1 km/h 69% 0.0 mm 425.00 W/m2
11:30 20.6 °C 14.7 °C 1026.6 hPa West 13.0 km/h 22.5 km/h 69% 0.0 mm 417.00 W/m2
11:35 20.5 °C 14.8 °C 1026.6 hPa WNW 11.1 km/h 24.1 km/h 70% 0.0 mm 397.00 W/m2
11:40 20.4 °C 14.7 °C 1027.0 hPa NW 14.3 km/h 24.1 km/h 70% 0.0 mm 397.00 W/m2
11:45 20.3 °C 14.9 °C 1026.6 hPa WNW 11.1 km/h 25.7 km/h 71% 0.0 mm 383.00 W/m2
11:50 20.2 °C 14.6 °C 1026.6 hPa West 14.3 km/h 29.0 km/h 70% 0.0 mm 367.00 W/m2
11:55 20.3 °C 14.9 °C 1026.6 hPa West 22.7 km/h 22.5 km/h 71% 0.0 mm 359.00 W/m2
12:00 20.5 °C 15.1 °C 1026.6 hPa WSW 4.7 km/h 19.3 km/h 71% 0.0 mm 348.00 W/m2
12:05 20.5 °C 14.8 °C 1026.6 hPa NW 20.9 km/h 20.9 km/h 70% 0.0 mm 336.00 W/m2
12:10 20.3 °C 14.9 °C 1026.6 hPa West 14.3 km/h 22.5 km/h 71% 0.0 mm 322.00 W/m2
12:15 20.4 °C 15.0 °C 1026.6 hPa NW 7.9 km/h 22.5 km/h 71% 0.0 mm 313.00 W/m2
12:20 20.2 °C 14.8 °C 1026.6 hPa West 7.9 km/h 20.9 km/h 71% 0.0 mm 299.00 W/m2
12:25 20.3 °C 15.1 °C 1026.6 hPa NW 7.9 km/h 17.7 km/h 72% 0.0 mm 285.00 W/m2
12:30 20.3 °C 15.1 °C 1026.6 hPa WSW 17.7 km/h 20.9 km/h 72% 0.0 mm 90.00 W/m2
12:35 19.7 °C 14.5 °C 1027.0 hPa WNW 19.5 km/h 25.7 km/h 72% 0.0 mm 202.00 W/m2
12:40 19.7 °C 14.7 °C 1027.0 hPa West 16.3 km/h 25.7 km/h 73% 0.0 mm 72.00 W/m2
12:45 19.4 °C 14.6 °C 1027.0 hPa West 14.3 km/h 24.1 km/h 74% 0.0 mm 53.00 W/m2
12:50 19.4 °C 14.6 °C 1027.0 hPa NW 19.5 km/h 20.9 km/h 74% 0.0 mm 54.00 W/m2
12:55 19.3 °C 14.5 °C 1027.0 hPa NW 30.6 km/h 30.6 km/h 74% 0.0 mm 62.00 W/m2
13:00 19.2 °C 14.5 °C 1027.0 hPa West 20.9 km/h 20.9 km/h 74% 0.0 mm 46.00 W/m2
13:05 19.2 °C 14.5 °C 1027.0 hPa West 4.7 km/h 19.3 km/h 74% 0.0 mm 46.00 W/m2
13:10 19.2 °C 14.5 °C 1027.0 hPa West 7.9 km/h 16.1 km/h 74% 0.0 mm 39.00 W/m2
13:15 19.0 °C 14.5 °C 1027.0 hPa WNW 6.4 km/h 12.9 km/h 75% 0.0 mm 35.00 W/m2
13:20 18.9 °C 14.4 °C 1027.3 hPa WNW 14.3 km/h 16.1 km/h 75% 0.0 mm 33.00 W/m2
13:25 18.8 °C 14.3 °C 1027.0 hPa WNW 7.9 km/h 22.5 km/h 75% 0.0 mm 33.00 W/m2
13:30 18.7 °C 14.2 °C 1027.3 hPa West 7.9 km/h 17.7 km/h 75% 0.0 mm 30.00 W/m2
13:35 18.7 °C 14.2 °C 1027.3 hPa WNW 4.7 km/h 11.3 km/h 75% 0.0 mm 21.00 W/m2
13:40 18.7 °C 14.2 °C 1027.3 hPa West 22.7 km/h 22.5 km/h 75% 0.0 mm 18.00 W/m2
13:45 18.5 °C 13.8 °C 1027.3 hPa NW 11.1 km/h 12.9 km/h 74% 0.0 mm 16.00 W/m2
13:50 18.5 °C 14.0 °C 1027.3 hPa WNW 3.2 km/h 16.1 km/h 75% 0.0 mm 14.00 W/m2
13:55 18.4 °C 13.9 °C 1027.3 hPa West 9.7 km/h 14.5 km/h 75% 0.0 mm 14.00 W/m2
14:00 18.4 °C 13.9 °C 1027.3 hPa NW 13.0 km/h 12.9 km/h 75% 0.0 mm 14.00 W/m2
14:05 18.3 °C 14.0 °C 1027.3 hPa WNW 6.4 km/h 17.7 km/h 76% 0.0 mm 12.00 W/m2
14:10 18.1 °C 13.8 °C 1027.3 hPa NW 3.2 km/h 12.9 km/h 76% 0.0 mm 5.00 W/m2
14:15 18.0 °C 13.9 °C 1027.3 hPa NW 7.9 km/h 16.1 km/h 77% 0.0 mm 0.00 W/m2
14:20 17.9 °C 14.0 °C 1027.3 hPa West 7.9 km/h 14.5 km/h 78% 0.0 mm 0.00 W/m2
14:25 17.8 °C 13.9 °C 1027.3 hPa West 14.3 km/h 14.5 km/h 78% 0.0 mm 0.00 W/m2
14:30 17.7 °C 14.0 °C 1027.3 hPa NW 7.9 km/h 8.0 km/h 79% 0.0 mm 0.00 W/m2
14:35 17.7 °C 14.2 °C 1027.3 hPa WNW 6.4 km/h 8.0 km/h 80% 0.0 mm 0.00 W/m2
14:40 17.6 °C 14.1 °C 1027.7 hPa WNW 7.9 km/h 11.3 km/h 80% 0.0 mm 0.00 W/m2
14:45 17.6 °C 14.3 °C 1027.7 hPa WNW 4.7 km/h 8.0 km/h 81% 0.0 mm 0.00 W/m2
14:50 17.6 °C 14.1 °C 1027.7 hPa WNW 4.7 km/h 12.9 km/h 80% 0.0 mm 0.00 W/m2
14:55 17.6 °C 14.3 °C 1027.7 hPa NW 7.9 km/h 12.9 km/h 81% 0.0 mm 0.00 W/m2
15:00 17.6 °C 14.3 °C 1027.7 hPa WNW 6.4 km/h 8.0 km/h 81% 0.0 mm 0.00 W/m2
15:05 17.6 °C 14.3 °C 1027.7 hPa West 1.4 km/h 12.9 km/h 81% 0.0 mm 0.00 W/m2
15:10 17.5 °C 14.2 °C 1028.0 hPa WNW 6.4 km/h 11.3 km/h 81% 0.0 mm 0.00 W/m2
15:15 17.5 °C 14.4 °C 1028.0 hPa WNW 7.9 km/h 11.3 km/h 82% 0.0 mm 0.00 W/m2
15:20 17.4 °C 14.3 °C 1028.0 hPa West 3.2 km/h 8.0 km/h 82% 0.0 mm 0.00 W/m2
15:25 17.4 °C 14.5 °C 1028.0 hPa WNW 9.7 km/h 12.9 km/h 83% 0.0 mm 0.00 W/m2
15:30 17.2 °C 14.5 °C 1028.0 hPa West 4.7 km/h 12.9 km/h 84% 0.0 mm 0.00 W/m2
15:35 17.0 °C 14.5 °C 1028.3 hPa WNW 3.2 km/h 9.7 km/h 85% 0.0 mm 0.00 W/m2
15:40 17.0 °C 14.5 °C 1028.3 hPa WNW 1.4 km/h 4.8 km/h 85% 0.0 mm 0.00 W/m2
15:45 17.0 °C 14.6 °C 1028.3 hPa WNW 1.4 km/h 6.4 km/h 86% 0.0 mm 0.00 W/m2
15:50 16.9 °C 14.7 °C 1028.0 hPa WNW 4.7 km/h 4.8 km/h 87% 0.0 mm 0.00 W/m2
15:55 16.9 °C 14.7 °C 1028.3 hPa West 1.4 km/h 4.8 km/h 87% 0.0 mm 0.00 W/m2
16:00 16.9 °C 14.7 °C 1028.3 hPa WSW 7.9 km/h 11.3 km/h 87% 0.0 mm 0.00 W/m2
16:05 16.8 °C 14.8 °C 1028.3 hPa WSW 6.4 km/h 8.0 km/h 88% 0.0 mm 0.00 W/m2
16:10 16.9 °C 14.9 °C 1028.3 hPa WSW 3.2 km/h 9.7 km/h 88% 0.0 mm 0.00 W/m2
16:15 16.9 °C 14.9 °C 1028.3 hPa WSW 3.2 km/h 6.4 km/h 88% 0.0 mm 0.00 W/m2
16:20 16.9 °C 14.9 °C 1028.3 hPa West 1.4 km/h 8.0 km/h 88% 0.0 mm 0.00 W/m2
16:25 16.9 °C 14.9 °C 1028.3 hPa West 1.4 km/h 4.8 km/h 88% 0.0 mm 0.00 W/m2
16:30 16.8 °C 14.8 °C 1028.3 hPa West 6.4 km/h 9.7 km/h 88% 0.0 mm 0.00 W/m2
16:35 16.7 °C 14.9 °C 1028.3 hPa WSW 1.4 km/h 9.7 km/h 89% 0.0 mm 0.00 W/m2
16:40 16.7 °C 14.9 °C 1028.3 hPa WSW 1.4 km/h 8.0 km/h 89% 0.0 mm 0.00 W/m2
16:45 16.7 °C 14.9 °C 1028.3 hPa WSW 1.4 km/h 8.0 km/h 89% 0.0 mm 0.00 W/m2
16:50 16.7 °C 15.1 °C 1028.7 hPa WSW 4.7 km/h 8.0 km/h 90% 0.0 mm 0.00 W/m2
16:55 16.6 °C 15.0 °C 1028.7 hPa WSW 7.9 km/h 9.7 km/h 90% 0.0 mm 0.00 W/m2
17:00 16.5 °C 14.9 °C 1028.7 hPa WSW 7.9 km/h 8.0 km/h 90% 0.0 mm 0.00 W/m2
17:05 16.5 °C 14.9 °C 1028.7 hPa WSW 3.2 km/h 6.4 km/h 90% 0.0 mm 0.00 W/m2
17:10 16.4 °C 14.9 °C 1028.7 hPa Calm   6.4 km/h 91% 0.0 mm 0.00 W/m2
17:15 16.4 °C 14.9 °C 1028.7 hPa WSW 6.4 km/h 6.4 km/h 91% 0.0 mm 0.00 W/m2
17:20 16.4 °C 14.9 °C 1028.7 hPa West 1.4 km/h 9.7 km/h 91% 0.0 mm 0.00 W/m2
17:25 16.4 °C 15.1 °C 1028.7 hPa West 4.7 km/h 4.8 km/h 92% 0.0 mm 0.00 W/m2
17:30 16.4 °C 15.1 °C 1028.7 hPa West 7.9 km/h 8.0 km/h 92% 0.0 mm 0.00 W/m2
17:35 16.4 °C 15.1 °C 1028.7 hPa West 1.4 km/h 6.4 km/h 92% 0.0 mm 0.00 W/m2
17:40 16.3 °C 15.0 °C 1029.0 hPa West 4.7 km/h 4.8 km/h 92% 0.0 mm 0.00 W/m2
17:45 16.3 °C 15.0 °C 1029.0 hPa West 8.0 km/h 8.0 km/h 92% 0.0 mm 0.00 W/m2
17:50 16.3 °C 15.0 °C 1029.0 hPa West 3.2 km/h 6.4 km/h 92% 0.0 mm 0.00 W/m2
17:55 16.3 °C 15.0 °C 1029.0 hPa West 6.4 km/h 9.7 km/h 92% 0.0 mm 0.00 W/m2
18:00 16.3 °C 15.0 °C 1029.0 hPa West 4.7 km/h 8.0 km/h 92% 0.0 mm 0.00 W/m2
18:05 16.3 °C 15.0 °C 1029.0 hPa West 3.2 km/h 6.4 km/h 92% 0.0 mm 0.00 W/m2
18:10 16.4 °C 15.3 °C 1029.0 hPa West 4.7 km/h 9.7 km/h 93% 0.0 mm 0.00 W/m2
18:15 16.4 °C 15.3 °C 1029.0 hPa West 3.2 km/h 8.0 km/h 93% 0.0 mm 0.00 W/m2
18:20 16.4 °C 15.3 °C 1029.0 hPa West 1.4 km/h 6.4 km/h 93% 0.0 mm 0.00 W/m2
18:25 16.4 °C 15.3 °C 1029.0 hPa West 4.7 km/h 6.4 km/h 93% 0.0 mm 0.00 W/m2
18:30 16.4 °C 15.3 °C 1029.0 hPa WNW 4.7 km/h 11.3 km/h 93% 0.0 mm 0.00 W/m2
18:35 16.4 °C 15.3 °C 1029.0 hPa WNW 1.4 km/h 4.8 km/h 93% 0.3 mm 0.00 W/m2
18:40 16.4 °C 15.3 °C 1029.0 hPa WNW 3.2 km/h 6.4 km/h 93% 0.3 mm 0.00 W/m2
18:45 16.4 °C 15.3 °C 1029.0 hPa WNW 1.4 km/h 4.8 km/h 93% 0.3 mm 0.00 W/m2
18:50 16.4 °C 15.3 °C 1029.0 hPa Calm   1.6 km/h 93% 0.3 mm 0.00 W/m2
18:55 16.4 °C 15.4 °C 1029.0 hPa Calm   3.2 km/h 94% 0.3 mm 0.00 W/m2
19:00 16.4 °C 15.4 °C 1029.0 hPa WNW 3.2 km/h 4.8 km/h 94% 0.3 mm 0.00 W/m2
19:05 16.4 °C 15.4 °C 1029.3 hPa Calm   4.8 km/h 94% 0.5 mm 0.00 W/m2
19:10 16.4 °C 15.4 °C 1029.3 hPa WNW 1.4 km/h 3.2 km/h 94% 0.5 mm 0.00 W/m2
19:15 16.4 °C 15.4 °C 1029.3 hPa WNW 3.2 km/h 3.2 km/h 94% 0.5 mm 0.00 W/m2
19:20 16.4 °C 15.4 °C 1029.3 hPa Calm     94% 0.5 mm 0.00 W/m2
19:25 16.4 °C 15.4 °C 1029.3 hPa Calm   3.2 km/h 94% 0.5 mm 0.00 W/m2
19:30 16.4 °C 15.4 °C 1029.3 hPa WNW 1.4 km/h 3.2 km/h 94% 0.5 mm 0.00 W/m2
19:35 16.4 °C 15.4 °C 1029.3 hPa Calm   4.8 km/h 94% 0.3 mm 0.00 W/m2
19:40 16.4 °C 15.4 °C 1029.3 hPa WNW 1.4 km/h 1.6 km/h 94% 0.3 mm 0.00 W/m2
19:45 16.4 °C 15.4 °C 1029.3 hPa Calm   3.2 km/h 94% 0.5 mm 0.00 W/m2
19:50 16.4 °C 15.4 °C 1029.3 hPa WNW 3.2 km/h 3.2 km/h 94% 0.5 mm 0.00 W/m2
19:55 16.4 °C 15.4 °C 1029.7 hPa Calm   3.2 km/h 94% 0.5 mm 0.00 W/m2
20:00 16.4 °C 15.4 °C 1029.7 hPa Calm   3.2 km/h 94% 0.5 mm 0.00 W/m2
20:05 16.4 °C 15.4 °C 1029.7 hPa WNW 1.4 km/h 4.8 km/h 94% 0.3 mm 0.00 W/m2
20:10 16.4 °C 15.4 °C 1029.7 hPa Calm   1.6 km/h 94% 0.3 mm 0.00 W/m2
20:15 16.3 °C 15.3 °C 1029.7 hPa WNW 4.8 km/h 4.8 km/h 94% 0.5 mm 0.00 W/m2
20:20 16.3 °C 15.5 °C 1029.7 hPa WNW 1.4 km/h 3.2 km/h 95% 0.5 mm 0.00 W/m2
20:25 16.3 °C 15.5 °C 1029.7 hPa Calm   1.6 km/h 95% 0.5 mm 0.00 W/m2
20:30 16.3 °C 15.5 °C 1029.7 hPa WNW 4.8 km/h 4.8 km/h 95% 0.5 mm 0.00 W/m2
20:35 16.3 °C 15.3 °C 1029.7 hPa Calm   3.2 km/h 94% 0.5 mm 0.00 W/m2
20:40 16.3 °C 15.5 °C 1029.7 hPa Calm   1.6 km/h 95% 0.3 mm 0.00 W/m2
20:45 16.2 °C 15.4 °C 1030.0 hPa WNW 3.2 km/h 3.2 km/h 95% 0.3 mm 0.00 W/m2
20:50 16.2 °C 15.4 °C 1030.0 hPa Calm   1.6 km/h 95% 0.3 mm 0.00 W/m2
20:55 16.2 °C 15.4 °C 1030.0 hPa Calm   1.6 km/h 95% 0.3 mm 0.00 W/m2
21:00 16.2 °C 15.4 °C 1030.0 hPa Calm   1.6 km/h 95% 0.3 mm 0.00 W/m2
21:05 16.3 °C 15.5 °C 1030.0 hPa Calm     95% 0.3 mm 0.00 W/m2
21:10 16.2 °C 15.4 °C 1030.0 hPa Calm     95% 0.0 mm 0.00 W/m2
21:15 16.2 °C 15.4 °C 1030.0 hPa Calm     95% 0.0 mm 0.00 W/m2
21:20 16.2 °C 15.4 °C 1030.0 hPa Calm     95% 0.0 mm 0.00 W/m2
21:25 16.2 °C 15.4 °C 1030.0 hPa Calm   1.6 km/h 95% 0.0 mm 0.00 W/m2
21:30 16.1 °C 15.3 °C 1030.0 hPa NE 19.3 km/h 19.3 km/h 95% 0.0 mm 0.00 W/m2
21:35 14.8 °C 14.0 °C 1030.4 hPa ENE 11.1 km/h 29.0 km/h 95% 0.0 mm 0.00 W/m2
21:40 14.2 °C 13.2 °C 1030.4 hPa ENE 3.2 km/h 16.1 km/h 94% 0.0 mm 0.00 W/m2
21:45 14.0 °C 13.0 °C 1030.4 hPa ENE 3.2 km/h 12.9 km/h 94% 0.0 mm 0.00 W/m2
21:50 13.8 °C 12.9 °C 1030.4 hPa Calm   8.0 km/h 94% 0.0 mm 0.00 W/m2
21:55 13.7 °C 12.8 °C 1030.7 hPa ESE 16.1 km/h 16.1 km/h 94% 0.0 mm 0.00 W/m2
22:00 13.7 °C 12.8 °C 1030.7 hPa ESE 3.2 km/h 4.8 km/h 94% 0.0 mm 0.00 W/m2
22:05 13.7 °C 12.8 °C 1031.0 hPa Calm     94% 0.0 mm 0.00 W/m2
22:10 13.6 °C 12.7 °C 1031.0 hPa NE 1.4 km/h 8.0 km/h 94% 0.0 mm 0.00 W/m2
22:15 13.7 °C 12.8 °C 1031.0 hPa NW 4.7 km/h 6.4 km/h 94% 0.0 mm 0.00 W/m2
22:20 13.7 °C 12.6 °C 1031.0 hPa Calm   8.0 km/h 93% 0.0 mm 0.00 W/m2
22:25 13.7 °C 12.6 °C 1031.4 hPa Calm     93% 0.0 mm 0.00 W/m2
22:30 13.6 °C 12.5 °C 1031.0 hPa Calm     93% 0.0 mm 0.00 W/m2
22:35 13.8 °C 12.7 °C 1031.4 hPa Calm   9.7 km/h 93% 0.0 mm 0.00 W/m2
22:40 13.6 °C 12.3 °C 1031.4 hPa Calm   6.4 km/h 92% 0.0 mm 0.00 W/m2
22:45 13.4 °C 12.1 °C 1031.4 hPa NNE 4.7 km/h 11.3 km/h 92% 0.0 mm 0.00 W/m2
22:50 13.2 °C 11.6 °C 1031.7 hPa North 1.4 km/h 16.1 km/h 90% 0.0 mm 0.00 W/m2
22:55 13.3 °C 11.5 °C 1031.7 hPa NNW 6.4 km/h 9.7 km/h 89% 0.0 mm 0.00 W/m2
23:00 13.4 °C 11.5 °C 1031.7 hPa North 1.4 km/h 6.4 km/h 88% 0.0 mm 0.00 W/m2
23:05 13.4 °C 11.1 °C 1031.7 hPa North 1.4 km/h 1.6 km/h 86% 0.0 mm 0.00 W/m2
23:10 13.4 °C 10.9 °C 1031.7 hPa Calm   3.2 km/h 85% 0.0 mm 0.00 W/m2
23:15 13.4 °C 10.8 °C 1031.7 hPa Calm   4.8 km/h 84% 0.0 mm 0.00 W/m2
23:20 13.4 °C 10.8 °C 1031.7 hPa WNW 3.2 km/h 3.2 km/h 84% 0.0 mm 0.00 W/m2
23:25 13.3 °C 10.5 °C 1032.1 hPa WNW 6.4 km/h 6.4 km/h 83% 0.0 mm 0.00 W/m2
23:30 13.3 °C 10.3 °C 1032.1 hPa Calm   3.2 km/h 82% 0.0 mm 0.00 W/m2
23:35 13.3 °C 10.3 °C 1031.7 hPa Calm   1.6 km/h 82% 0.0 mm 0.00 W/m2
23:40 13.3 °C 10.1 °C 1032.1 hPa Calm   1.6 km/h 81% 0.0 mm 0.00 W/m2
23:45 13.3 °C 10.1 °C 1032.1 hPa Calm   3.2 km/h 81% 0.0 mm 0.00 W/m2
23:50 13.3 °C 10.3 °C 1032.1 hPa Calm   1.6 km/h 82% 0.0 mm 0.00 W/m2
23:55 13.2 °C 10.0 °C 1032.1 hPa NE 1.4 km/h 12.9 km/h 81% 0.0 mm 0.00 W/m2